createdAt,value
2019-05-01T00:01:32.869Z,10.93
2019-05-01T00:04:08.700Z,10.89
2019-05-01T00:06:50.970Z,10.63
2019-05-01T00:09:19.734Z,10.91
2019-05-01T00:11:48.320Z,10.96
2019-05-01T00:14:16.729Z,11.07
2019-05-01T00:16:45.615Z,11.00
2019-05-01T00:19:14.096Z,11.02
2019-05-01T00:21:42.520Z,11.08
2019-05-01T00:24:10.938Z,10.99
2019-05-01T00:26:39.365Z,10.90
2019-05-01T00:29:07.845Z,11.03
2019-05-01T00:31:36.264Z,10.95
2019-05-01T00:34:04.673Z,10.90
2019-05-01T00:36:33.091Z,10.85
2019-05-01T00:39:01.499Z,10.70
2019-05-01T00:41:29.917Z,10.59
2019-05-01T00:43:58.415Z,10.60
2019-05-01T00:46:26.838Z,10.63
2019-05-01T00:48:55.243Z,10.88
2019-05-01T00:51:23.663Z,10.99
2019-05-01T00:53:52.065Z,11.08
2019-05-01T00:56:28.099Z,11.04
2019-05-01T00:59:01.060Z,11.12
2019-05-01T01:01:31.116Z,11.17
2019-05-01T01:03:59.689Z,11.11
2019-05-01T01:06:28.185Z,10.94
2019-05-01T01:08:56.593Z,11.01
2019-05-01T01:11:25.008Z,11.07
2019-05-01T01:13:53.409Z,10.92
2019-05-01T01:16:21.824Z,10.99
2019-05-01T01:18:50.225Z,10.97
2019-05-01T01:21:18.658Z,10.87
2019-05-01T01:23:47.131Z,11.08
2019-05-01T01:26:15.549Z,11.03
2019-05-01T01:28:43.953Z,10.98
2019-05-01T01:31:12.370Z,10.62
2019-05-01T01:33:40.784Z,10.68
2019-05-01T01:36:09.207Z,10.60
2019-05-01T01:38:37.611Z,10.59
2019-05-01T01:41:06.097Z,10.55
2019-05-01T01:43:51.155Z,10.50
2019-05-01T01:46:30.277Z,10.30
2019-05-01T01:48:58.948Z,10.35
2019-05-01T01:51:27.733Z,10.54
2019-05-01T01:53:57.077Z,10.62
2019-05-01T01:56:25.730Z,10.54
2019-05-01T01:58:54.780Z,10.24
2019-05-01T02:01:27.787Z,10.32
2019-05-01T02:04:14.226Z,10.43
2019-05-01T02:06:42.640Z,10.42
2019-05-01T02:09:11.218Z,10.42
2019-05-01T02:11:39.635Z,10.32
2019-05-01T02:14:08.042Z,10.33
2019-05-01T02:16:36.446Z,10.28
2019-05-01T02:19:05.202Z,10.02
2019-05-01T02:21:33.698Z,10.06
2019-05-01T02:24:02.117Z,10.04
2019-05-01T02:26:32.161Z,9.92
2019-05-01T02:29:11.020Z,10.15
2019-05-01T02:31:50.879Z,10.07
2019-05-01T02:34:20.218Z,10.02
2019-05-01T02:36:51.840Z,10.33
2019-05-01T02:39:21.681Z,10.28
2019-05-01T02:41:52.734Z,10.27
2019-05-01T02:44:26.807Z,10.27
2019-05-01T02:46:57.493Z,9.90
2019-05-01T02:49:43.891Z,9.73
2019-05-01T02:52:13.039Z,9.77
2019-05-01T02:54:44.495Z,9.68
2019-05-01T02:57:17.994Z,9.47
2019-05-01T02:59:49.544Z,9.54
2019-05-01T03:02:18.966Z,9.48
2019-05-01T03:04:47.810Z,9.66
2019-05-01T03:07:17.459Z,9.77
2019-05-01T03:09:46.604Z,10.01
2019-05-01T03:12:17.886Z,9.60
2019-05-01T03:14:49.393Z,9.61
2019-05-01T03:17:31.869Z,9.51
2019-05-01T03:20:03.640Z,9.48
2019-05-01T03:22:34.241Z,9.42
2019-05-01T03:25:02.969Z,9.55
2019-05-01T03:27:31.379Z,9.53
2019-05-01T03:30:00.269Z,9.44
2019-05-01T03:32:28.676Z,9.52
2019-05-01T03:34:57.150Z,9.60
2019-05-01T03:37:25.996Z,9.63
2019-05-01T03:39:54.572Z,9.79
2019-05-01T03:42:23.095Z,10.05
2019-05-01T03:44:51.698Z,10.18
2019-05-01T03:47:20.168Z,10.32
2019-05-01T03:49:48.765Z,10.30
2019-05-01T03:52:17.311Z,10.00
2019-05-01T03:54:45.790Z,9.84
2019-05-01T03:57:14.461Z,9.74
2019-05-01T03:59:42.871Z,9.70
2019-05-01T04:02:33.030Z,9.69
2019-05-01T04:04:52.005Z,9.81
2019-05-01T04:07:20.574Z,9.93
2019-05-01T04:09:48.986Z,9.79
2019-05-01T04:12:17.548Z,9.93
2019-05-01T04:14:46.038Z,10.06
2019-05-01T04:17:18.983Z,10.05
2019-05-01T04:19:47.669Z,10.05
2019-05-01T04:22:16.245Z,9.77
2019-05-01T04:24:44.822Z,9.68
2019-05-01T04:27:15.097Z,9.90
2019-05-01T04:29:45.216Z,9.92
2019-05-01T04:32:15.326Z,9.98
2019-05-01T04:34:45.437Z,9.84
2019-05-01T04:37:15.717Z,9.69
2019-05-01T04:39:44.190Z,9.70
2019-05-01T04:42:12.676Z,9.78
2019-05-01T04:44:41.940Z,9.65
2019-05-01T04:47:10.589Z,9.66
2019-05-01T04:49:39.053Z,9.73
2019-05-01T04:52:07.706Z,9.75
2019-05-01T04:54:36.515Z,9.78
2019-05-01T04:57:04.985Z,9.93
2019-05-01T04:59:34.165Z,9.97
2019-05-01T05:02:04.751Z,10.21
2019-05-01T05:04:34.105Z,10.09
2019-05-01T05:07:02.586Z,9.91
2019-05-01T05:09:39.386Z,9.90
2019-05-01T05:12:19.219Z,9.78
2019-05-01T05:14:49.701Z,9.58
2019-05-01T05:17:23.085Z,9.68
2019-05-01T05:19:51.667Z,9.78
2019-05-01T05:22:20.405Z,9.50
2019-05-01T05:24:48.906Z,9.60
2019-05-01T05:27:17.939Z,9.65
2019-05-01T05:29:47.658Z,9.80
2019-05-01T05:32:17.264Z,9.92
2019-05-01T05:34:47.615Z,9.88
2019-05-01T05:37:20.132Z,10.09
2019-05-01T05:39:50.883Z,9.85
2019-05-01T05:42:19.281Z,9.97
2019-05-01T05:44:48.634Z,10.05
2019-05-01T05:47:17.481Z,10.13
2019-05-01T05:49:46.724Z,9.92
2019-05-01T05:52:21.121Z,10.01
2019-05-01T05:58:23.616Z,9.86
2019-05-01T06:01:31.941Z,9.85
2019-05-01T06:04:40.258Z,9.99
2019-05-01T06:07:48.565Z,9.95
2019-05-01T06:10:36.089Z,9.80
2019-05-01T06:13:42.875Z,9.92
2019-05-01T06:16:52.082Z,9.69
2019-05-01T06:20:01.240Z,9.83
2019-05-01T06:23:09.550Z,9.89
2019-05-01T06:26:17.875Z,10.22
2019-05-01T06:28:46.281Z,10.11
2019-05-01T06:31:33.814Z,10.01
2019-05-01T06:37:10.288Z,9.84
2019-05-01T06:40:22.309Z,9.90
2019-05-01T06:43:28.700Z,10.10
2019-05-01T06:49:31.888Z,10.24
2019-05-01T06:52:40.209Z,10.27
2019-05-01T06:55:51.355Z,10.60
2019-05-01T07:05:01.057Z,10.94
2019-05-01T07:16:26.676Z,10.80
2019-05-01T07:19:14.199Z,10.81
2019-05-01T07:22:22.524Z,10.74
2019-05-01T07:25:34.929Z,10.52
2019-05-01T07:28:00.985Z,10.37
2019-05-01T07:30:50.073Z,10.25
2019-05-01T07:36:50.114Z,10.42
2019-05-01T07:39:56.013Z,10.46
2019-05-01T07:43:04.347Z,10.73
2019-05-01T07:46:13.792Z,10.67
2019-05-01T07:49:22.710Z,11.18
2019-05-01T07:52:12.532Z,11.55
2019-05-01T07:58:28.654Z,11.60
2019-05-01T08:01:36.977Z,11.64
2019-05-01T08:04:35.915Z,11.90
2019-05-01T08:06:57.238Z,11.67
2019-05-01T08:09:24.929Z,11.94
2019-05-01T08:14:27.025Z,11.67
2019-05-01T08:20:28.501Z,11.82
2019-05-01T08:22:56.919Z,11.74
2019-05-01T08:25:44.442Z,11.42
2019-05-01T08:33:51.566Z,11.28
2019-05-01T08:36:20.194Z,11.47
2019-05-01T08:39:09.099Z,11.77
2019-05-01T08:41:57.178Z,11.93
2019-05-01T08:47:33.791Z,12.10
2019-05-01T08:52:51.286Z,12.54
2019-05-01T08:55:19.688Z,12.28
2019-05-01T08:58:08.789Z,12.22
2019-05-01T09:00:41.074Z,12.11
2019-05-01T09:03:08.824Z,12.21
2019-05-01T09:05:57.713Z,11.63
2019-05-01T09:08:31.916Z,11.64
2019-05-01T09:11:16.467Z,11.91
2019-05-01T09:16:38.390Z,12.46
2019-05-01T09:19:46.759Z,12.63
2019-05-01T09:22:15.128Z,12.57
2019-05-01T09:24:43.531Z,12.78
2019-05-01T09:27:31.251Z,12.69
2019-05-01T09:30:39.555Z,12.90
2019-05-01T09:36:05.934Z,12.75
2019-05-01T09:38:34.354Z,12.74
2019-05-01T09:43:50.212Z,12.63
2019-05-01T09:46:37.731Z,12.77
2019-05-01T09:49:48.682Z,13.17
2019-05-01T09:52:35.298Z,13.49
2019-05-01T09:55:43.607Z,13.58
2019-05-01T09:58:31.271Z,13.95
2019-05-01T10:01:18.796Z,13.78
2019-05-01T10:04:06.324Z,13.72
2019-05-01T10:09:22.186Z,13.39
2019-05-01T10:12:11.725Z,13.36
2019-05-01T10:14:40.005Z,13.62
2019-05-01T10:17:27.753Z,13.59
2019-05-01T10:19:56.155Z,13.92
2019-05-01T10:27:52.936Z,14.76
2019-05-01T10:36:18.250Z,15.60
2019-05-01T10:38:39.862Z,15.46
2019-05-01T10:41:10.449Z,15.54
2019-05-01T10:43:58.206Z,15.30
2019-05-01T10:46:26.618Z,15.55
2019-05-01T10:48:57.337Z,15.45
2019-05-01T10:51:25.166Z,15.54
2019-05-01T10:54:12.681Z,15.88
2019-05-01T10:56:41.085Z,16.18
2019-05-01T10:59:28.619Z,16.56
2019-05-01T11:05:55.216Z,16.50
2019-05-01T11:08:15.380Z,16.41
2019-05-01T11:10:43.786Z,16.08
2019-05-01T11:13:31.552Z,16.05
2019-05-01T11:15:59.951Z,16.35
2019-05-01T11:18:47.474Z,16.08
2019-05-01T11:21:35.157Z,16.61
2019-05-01T11:24:03.581Z,16.79
2019-05-01T11:26:51.236Z,16.59
2019-05-01T11:29:19.653Z,16.94
2019-05-01T11:32:07.177Z,17.04
2019-05-01T11:34:54.708Z,16.91
2019-05-01T11:41:09.880Z,17.22
2019-05-01T11:46:25.743Z,17.11
2019-05-01T11:49:13.267Z,17.47
2019-05-01T11:51:41.663Z,17.60
2019-05-01T11:54:29.186Z,17.93
2019-05-01T11:56:57.582Z,17.89
2019-05-01T11:59:25.987Z,17.72
2019-05-01T12:02:13.742Z,17.62
2019-05-01T12:05:01.642Z,17.25
2019-05-01T12:07:49.153Z,17.09
2019-05-01T12:10:57.468Z,17.21
2019-05-01T12:13:25.863Z,17.44
2019-05-01T12:18:48.704Z,17.37
2019-05-01T12:21:17.121Z,17.63
2019-05-01T12:24:04.769Z,17.79
2019-05-01T12:26:33.182Z,17.79
2019-05-01T12:29:01.585Z,17.44
2019-05-01T12:31:31.275Z,17.44
2019-05-01T12:34:00.133Z,17.32
2019-05-01T12:39:34.216Z,17.21
2019-05-01T12:44:41.299Z,17.79
2019-05-01T12:50:07.969Z,17.67
2019-05-01T12:53:14.746Z,17.72
2019-05-01T12:56:02.287Z,17.87
2019-05-01T12:58:30.694Z,17.97
2019-05-01T13:01:18.360Z,18.21
2019-05-01T13:06:34.218Z,18.26
2019-05-01T13:09:21.737Z,18.46
2019-05-01T13:11:50.148Z,18.48
2019-05-01T13:14:37.792Z,18.58
2019-05-01T13:17:06.208Z,18.52
2019-05-01T13:19:34.614Z,18.43
2019-05-01T13:22:42.938Z,18.37
2019-05-01T13:25:51.260Z,18.29
2019-05-01T13:28:38.784Z,18.47
2019-05-01T13:31:26.310Z,18.53
2019-05-01T13:33:54.719Z,18.63
2019-05-01T13:36:42.257Z,18.63
2019-05-01T13:39:30.070Z,18.94
2019-05-01T13:42:17.796Z,19.27
2019-05-01T13:47:33.650Z,19.33
2019-05-01T13:50:21.296Z,18.57
2019-05-01T13:52:49.734Z,18.70
2019-05-01T13:55:58.031Z,18.93
2019-05-01T13:58:45.671Z,18.81
2019-05-01T14:03:53.174Z,18.48
2019-05-01T14:06:21.619Z,18.03
2019-05-01T14:08:50.024Z,18.64
2019-05-01T14:13:53.024Z,18.27
2019-05-01T14:16:21.428Z,18.32
2019-05-01T14:18:49.836Z,18.65
2019-05-01T14:21:56.718Z,18.77
2019-05-01T14:24:44.225Z,18.62
2019-05-01T14:27:31.754Z,19.06
2019-05-01T14:33:06.952Z,18.67
2019-05-01T14:35:54.602Z,18.82
2019-05-01T14:38:23.011Z,18.93
2019-05-01T14:40:51.426Z,18.99
2019-05-01T14:43:38.949Z,18.96
2019-05-01T14:46:26.483Z,19.10
2019-05-01T14:48:55.277Z,18.79
2019-05-01T14:53:57.305Z,18.62
2019-05-01T14:56:45.211Z,18.37
2019-05-01T14:59:32.867Z,18.56
2019-05-01T15:02:20.399Z,18.31
2019-05-01T15:04:48.806Z,18.40
2019-05-01T15:07:17.217Z,18.62
2019-05-01T15:10:04.742Z,18.66
2019-05-01T15:12:52.269Z,18.54
2019-05-01T15:15:39.791Z,18.46
2019-05-01T15:18:27.371Z,18.49
2019-05-01T15:21:14.977Z,18.49
2019-05-01T15:23:53.312Z,18.63
2019-05-01T15:26:32.761Z,18.74
2019-05-01T15:29:20.444Z,18.39
2019-05-01T15:31:48.868Z,18.26
2019-05-01T15:34:36.607Z,18.16
2019-05-01T15:37:56.068Z,17.78
2019-05-01T15:40:54.983Z,17.52
2019-05-01T15:43:42.514Z,17.59
2019-05-01T15:46:30.165Z,17.30
2019-05-01T15:48:58.579Z,17.52
2019-05-01T15:51:46.093Z,17.72
2019-05-01T15:54:14.509Z,17.65
2019-05-01T15:57:02.044Z,17.37
2019-05-01T15:59:49.717Z,17.25
2019-05-01T16:02:18.150Z,17.47
2019-05-01T16:05:05.802Z,17.65
2019-05-01T16:10:48.514Z,17.37
2019-05-01T16:13:36.048Z,17.37
2019-05-01T16:18:53.546Z,17.36
2019-05-01T16:21:21.954Z,17.30
2019-05-01T16:23:50.369Z,17.35
2019-05-01T16:26:37.891Z,17.31
2019-05-01T16:29:06.311Z,17.04
2019-05-01T16:31:54.049Z,16.72
2019-05-01T16:34:41.577Z,16.49
2019-05-01T16:37:09.987Z,16.63
2019-05-01T16:39:57.518Z,16.69
2019-05-01T16:45:54.918Z,16.64
2019-05-01T16:50:57.352Z,16.84
2019-05-01T16:53:25.764Z,16.62
2019-05-01T16:56:13.509Z,16.87
2019-05-01T16:59:01.168Z,16.70
2019-05-01T17:05:16.371Z,16.52
2019-05-01T17:14:11.889Z,16.32
2019-05-01T17:16:59.410Z,16.21
2019-05-01T17:22:02.215Z,16.06
2019-05-01T17:24:30.620Z,16.12
2019-05-01T17:27:18.269Z,16.16
2019-05-01T17:30:05.793Z,16.35
2019-05-01T17:32:34.196Z,16.09
2019-05-01T17:35:21.953Z,16.15
2019-05-01T17:38:09.607Z,16.34
2019-05-01T17:40:38.029Z,16.41
2019-05-01T17:43:49.442Z,16.22
2019-05-01T17:46:16.476Z,16.41
2019-05-01T17:49:08.627Z,16.05
2019-05-01T17:51:34.133Z,15.97
2019-05-01T17:54:02.546Z,15.78
2019-05-01T17:56:53.851Z,15.39
2019-05-01T17:59:20.205Z,15.13
2019-05-01T18:04:56.822Z,14.80
2019-05-01T18:10:34.083Z,14.83
2019-05-01T18:13:22.812Z,14.77
2019-05-01T18:16:10.475Z,14.52
2019-05-01T18:24:26.634Z,14.35
2019-05-01T18:27:14.694Z,14.25
2019-05-01T18:30:03.435Z,14.22
2019-05-01T18:32:52.517Z,14.18
2019-05-01T18:38:42.934Z,13.99
2019-05-01T18:41:29.506Z,13.85
2019-05-01T18:44:17.155Z,13.94
2019-05-01T18:46:45.668Z,13.74
2019-05-01T18:49:33.367Z,13.50
2019-05-01T18:52:21.107Z,13.23
2019-05-01T18:55:08.767Z,13.36
2019-05-01T18:57:56.422Z,13.09
2019-05-01T19:06:17.561Z,12.98
2019-05-01T19:09:14.739Z,12.83
2019-05-01T19:15:10.273Z,13.02
2019-05-01T19:17:38.679Z,12.86
2019-05-01T19:20:26.430Z,12.76
2019-05-01T19:22:54.855Z,12.50
2019-05-01T19:25:23.258Z,12.58
2019-05-01T19:27:51.731Z,12.55
2019-05-01T19:31:00.078Z,12.48
2019-05-01T19:33:47.746Z,12.44
2019-05-01T19:36:35.465Z,12.53
2019-05-01T19:45:10.010Z,12.36
2019-05-01T19:51:05.808Z,11.94
2019-05-01T19:53:53.638Z,11.84
2019-05-01T19:56:41.310Z,11.86
2019-05-01T19:59:09.703Z,11.83
2019-05-01T20:01:43.733Z,11.72
2019-05-01T20:06:55.774Z,11.50
2019-05-01T20:09:56.205Z,11.41
2019-05-01T20:12:13.675Z,11.37
2019-05-01T20:15:01.211Z,11.26
2019-05-01T20:17:48.870Z,11.03
2019-05-01T20:20:17.307Z,11.05
2019-05-01T20:25:33.166Z,11.22
2019-05-01T20:28:22.484Z,11.10
2019-05-01T20:30:51.061Z,10.99
2019-05-01T20:33:19.468Z,11.08
2019-05-01T20:36:07.293Z,11.19
2019-05-01T20:38:54.819Z,11.16
2019-05-01T20:41:42.500Z,11.04
2019-05-01T20:44:30.155Z,11.01
2019-05-01T20:47:02.503Z,11.06
2019-05-01T20:49:47.815Z,11.04
2019-05-01T20:52:35.347Z,11.10
2019-05-01T21:06:19.556Z,10.80
2019-05-01T21:09:08.387Z,10.74
2019-05-01T21:12:05.121Z,10.93
2019-05-01T21:14:26.502Z,10.83
2019-05-01T21:17:15.102Z,10.54
2019-05-01T21:19:44.289Z,10.64
2019-05-01T21:22:33.410Z,10.59
2019-05-01T21:28:08.650Z,10.58
2019-05-01T21:30:38.705Z,10.78
2019-05-01T21:33:11.101Z,10.92
2019-05-01T21:35:37.394Z,10.88
2019-05-01T21:38:24.922Z,10.70
2019-05-01T21:41:12.461Z,10.73
2019-05-01T21:44:00.109Z,10.88
2019-05-01T21:46:47.641Z,10.76
2019-05-01T21:49:35.289Z,10.72
2019-05-01T21:57:35.633Z,10.75
2019-05-01T22:03:30.436Z,10.54
2019-05-01T22:05:58.847Z,10.43
2019-05-01T22:09:10.531Z,10.37
2019-05-01T22:11:37.829Z,10.22
2019-05-01T22:19:32.063Z,10.31
2019-05-01T22:22:43.675Z,10.16
2019-05-01T22:25:48.915Z,9.94
2019-05-01T22:28:36.450Z,9.92
2019-05-01T22:36:29.043Z,10.33
2019-05-01T22:38:57.461Z,10.35
2019-05-01T22:41:45.126Z,10.45
2019-05-01T22:49:34.833Z,10.16
2019-05-01T22:52:22.514Z,10.19
2019-05-01T22:57:38.407Z,10.37
2019-05-01T23:00:46.725Z,10.04
2019-05-01T23:03:40.562Z,10.28
2019-05-01T23:15:22.321Z,10.31
2019-05-01T23:23:39.656Z,10.41
2019-05-01T23:31:49.065Z,10.51
2019-05-01T23:34:36.615Z,10.51
2019-05-01T23:37:44.937Z,10.24
2019-05-01T23:40:53.321Z,10.37
2019-05-01T23:45:55.629Z,9.99
2019-05-01T23:48:43.164Z,9.99
2019-05-01T23:51:11.578Z,10.16
2019-05-01T23:53:59.110Z,10.17
2019-05-01T23:59:14.974Z,10.10
